Time;durP1;ratioP1;P1;durP2;ratioP2;P2;SDS_P1;SDS_P2;PMS_P1;PMS_P2;Temp;Humidity;BMP_temperature;BMP_pressure;BME280_temperature;BME280_humidity;BME280_pressure;Samples;Min_cycle;Max_cycle;Signal;HPM_P1;HPM_P2
2023/09/10 00:02:03;;;;;;;43.85;39.50;;;17.70;99.90;;;;;;5055232;28;20055;-67
2023/09/10 00:04:28;;;;;;;41.78;37.38;;;17.70;99.90;;;;;;5035791;28;20486;-67
2023/09/10 00:06:54;;;;;;;39.53;35.55;;;17.70;99.90;;;;;;5054434;28;20512;-68
2023/09/10 00:09:20;;;;;;;47.75;43.08;;;17.60;99.90;;;;;;5054118;28;20386;-68
2023/09/10 00:11:46;;;;;;;45.45;40.92;;;17.60;99.90;;;;;;5053575;28;20457;-67
2023/09/10 00:14:13;;;;;;;47.10;42.30;;;17.60;99.90;;;;;;5036277;28;20055;-67
2023/09/10 00:16:38;;;;;;;41.30;36.97;;;17.60;99.90;;;;;;5036860;28;20348;-67
2023/09/10 00:19:04;;;;;;;40.25;36.13;;;17.60;99.90;;;;;;5053660;28;20040;-67
2023/09/10 00:21:30;;;;;;;41.40;37.13;;;17.50;99.90;;;;;;5019128;28;20529;-67
2023/09/10 00:23:55;;;;;;;41.92;37.80;;;17.50;99.90;;;;;;5036558;28;20456;-67
2023/09/10 00:26:21;;;;;;;39.00;35.10;;;17.50;99.90;;;;;;5035437;28;20077;-68
2023/09/10 00:28:49;;;;;;;42.45;38.20;;;17.50;99.90;;;;;;5036003;28;20095;-67
2023/09/10 00:31:15;;;;;;;46.92;42.28;;;17.50;99.90;;;;;;5035659;28;20036;-67
2023/09/10 00:33:41;;;;;;;46.40;41.75;;;17.40;99.90;;;;;;5053826;28;20508;-67
2023/09/10 00:36:08;;;;;;;37.15;33.38;;;17.40;99.90;;;;;;5035962;28;20055;-67
2023/09/10 00:38:34;;;;;;;37.85;34.13;;;17.40;99.90;;;;;;5034985;28;20119;-67
2023/09/10 00:41:00;;;;;;;33.50;29.98;;;17.40;99.90;;;;;;5035646;28;20148;-68
2023/09/10 00:43:25;;;;;;;35.63;32.08;;;17.40;99.90;;;;;;5053800;28;20045;-67
2023/09/10 00:45:51;;;;;;;45.42;40.65;;;17.40;99.90;;;;;;5018724;28;20532;-67
2023/09/10 00:48:18;;;;;;;38.33;34.38;;;17.40;99.90;;;;;;5035706;28;20056;-67
2023/09/10 00:50:44;;;;;;;35.10;31.67;;;17.40;99.90;;;;;;5053298;28;20147;-67
2023/09/10 00:53:10;;;;;;;39.17;35.17;;;17.30;99.90;;;;;;5034170;28;20052;-67
2023/09/10 00:55:36;;;;;;;36.67;33.08;;;17.30;99.90;;;;;;5012238;28;20119;-67
2023/09/10 00:58:02;;;;;;;33.25;29.83;;;17.30;99.90;;;;;;5012995;28;20471;-67
2023/09/10 01:00:29;;;;;;;47.45;42.67;;;17.30;99.90;;;;;;5012686;28;20087;-67
2023/09/10 01:02:58;;;;;;;46.83;41.92;;;17.30;99.90;;;;;;5027383;28;20364;-67
2023/09/10 01:05:24;;;;;;;38.80;35.03;;;17.30;99.90;;;;;;5032768;28;20041;-68
2023/09/10 01:07:50;;;;;;;39.58;35.47;;;17.30;99.90;;;;;;5014639;28;20049;-67
2023/09/10 01:10:16;;;;;;;36.30;32.63;;;17.20;99.90;;;;;;5031977;28;20044;-67
2023/09/10 01:12:45;;;;;;;37.88;34.15;;;17.20;99.90;;;;;;5033097;28;20120;-67
2023/09/10 01:15:22;;;;;;;35.58;31.77;;;17.20;99.90;;;;;;5030682;28;20556;-67
2023/09/10 01:18:03;;;;;;;43.45;39.03;;;17.20;99.90;;;;;;5031701;28;20510;-67
2023/09/10 01:20:47;;;;;;;40.00;35.65;;;17.20;99.90;;;;;;5030599;28;20099;-67
2023/09/10 01:23:36;;;;;;;42.33;37.85;;;17.20;99.90;;;;;;5031362;28;20040;-67
2023/09/10 01:26:02;;;;;;;41.17;37.17;;;17.10;99.90;;;;;;5033327;28;20498;-68
2023/09/10 01:28:28;;;;;;;47.42;42.47;;;17.10;99.90;;;;;;5031040;28;20038;-67
2023/09/10 01:30:54;;;;;;;47.05;42.15;;;17.10;99.90;;;;;;5033215;28;20041;-67
2023/09/10 01:33:43;;;;;;;45.35;40.60;;;17.10;99.90;;;;;;5029891;28;20047;-67
2023/09/10 01:36:23;;;;;;;42.15;37.88;;;17.10;99.90;;;;;;5030155;28;20057;-67
2023/09/10 01:39:25;;;;;;;47.05;42.33;;;17.10;99.90;;;;;;5031287;28;20042;-67
2023/09/10 01:41:52;;;;;;;41.00;36.70;;;17.00;99.90;;;;;;5030636;28;20139;-67
2023/09/10 01:44:19;;;;;;;38.90;34.92;;;17.00;99.90;;;;;;5032800;28;20037;-67
2023/09/10 01:46:45;;;;;;;42.05;37.58;;;17.10;99.90;;;;;;5031848;28;20399;-67
2023/09/10 01:49:11;;;;;;;34.60;31.00;;;17.10;99.90;;;;;;5031253;28;20029;-67
2023/09/10 01:51:37;;;;;;;38.55;34.55;;;17.00;99.90;;;;;;5032634;28;20560;-67
2023/09/10 01:54:03;;;;;;;35.58;32.08;;;17.00;99.90;;;;;;5021262;28;20049;-67
2023/09/10 01:56:29;;;;;;;37.05;33.28;;;17.00;99.90;;;;;;5050111;28;20498;-67
2023/09/10 01:58:54;;;;;;;33.33;29.80;;;17.00;99.90;;;;;;5052625;28;20036;-67
2023/09/10 02:01:20;;;;;;;38.33;34.35;;;17.00;99.90;;;;;;5034277;28;20045;-67
2023/09/10 02:03:46;;;;;;;38.60;34.60;;;17.00;99.90;;;;;;5033381;28;20036;-67
2023/09/10 02:06:12;;;;;;;37.30;33.30;;;17.00;99.90;;;;;;5034132;28;20041;-67
2023/09/10 02:08:37;;;;;;;35.10;31.45;;;17.00;99.90;;;;;;5052064;28;20489;-68
2023/09/10 02:11:04;;;;;;;38.83;34.97;;;16.90;99.90;;;;;;5050611;28;20045;-67
2023/09/10 02:13:30;;;;;;;40.20;35.85;;;17.00;99.90;;;;;;5030951;28;20053;-67
2023/09/10 02:15:56;;;;;;;36.17;32.35;;;17.00;99.90;;;;;;5031517;28;20040;-67
2023/09/10 02:18:22;;;;;;;38.03;31.63;;;17.00;99.90;;;;;;5041848;28;20556;-67
2023/09/10 02:20:48;;;;;;;36.85;33.28;;;16.90;99.90;;;;;;5052250;28;20073;-67
2023/09/10 02:23:14;;;;;;;36.35;32.47;;;16.90;99.90;;;;;;5052401;28;20032;-67
2023/09/10 02:25:39;;;;;;;46.60;41.78;;;16.90;99.90;;;;;;5050010;28;20183;-67
2023/09/10 02:28:05;;;;;;;38.05;34.25;;;16.90;99.90;;;;;;5046121;28;20045;-67
2023/09/10 02:30:31;;;;;;;43.65;38.97;;;16.80;99.90;;;;;;5051713;28;20461;-67
2023/09/10 02:32:56;;;;;;;39.08;35.13;;;16.90;99.90;;;;;;5051306;28;20106;-67
2023/09/10 02:35:23;;;;;;;42.35;37.92;;;16.80;99.90;;;;;;5033963;28;20076;-67
2023/09/10 02:37:49;;;;;;;46.60;41.80;;;16.80;99.90;;;;;;5017616;28;20036;-62
2023/09/10 02:40:14;;;;;;;51.35;46.05;;;16.80;99.90;;;;;;5046974;28;20066;-62
2023/09/10 02:42:40;;;;;;;35.92;32.22;;;16.80;99.90;;;;;;5051562;28;20497;-62
2023/09/10 02:45:06;;;;;;;38.10;34.20;;;16.80;99.90;;;;;;5033077;28;20731;-62
2023/09/10 02:47:32;;;;;;;39.50;35.50;;;16.70;99.90;;;;;;5033591;28;20398;-62
2023/09/10 02:49:58;;;;;;;37.10;33.40;;;16.70;99.90;;;;;;5050958;28;20041;-62
2023/09/10 02:52:24;;;;;;;44.42;39.95;;;16.70;99.90;;;;;;5049858;28;20506;-62
2023/09/10 02:54:51;;;;;;;46.03;41.38;;;16.70;99.90;;;;;;5050484;28;20068;-63
2023/09/10 02:57:17;;;;;;;46.20;41.42;;;16.70;99.90;;;;;;5050833;28;20052;-62
2023/09/10 02:59:43;;;;;;;50.03;44.70;;;16.70;99.90;;;;;;5050676;28;20037;-62
2023/09/10 03:02:08;;;;;;;43.15;38.60;;;16.70;99.90;;;;;;5051136;28;20039;-62
2023/09/10 03:04:34;;;;;;;43.15;38.75;;;16.70;99.90;;;;;;5034043;28;20371;-68
2023/09/10 03:07:03;;;;;;;45.75;40.88;;;16.70;99.90;;;;;;5051188;28;20466;-68
2023/09/10 03:09:29;;;;;;;40.20;35.88;;;16.60;99.90;;;;;;5051243;28;20041;-67
2023/09/10 03:12:25;;;;;;;44.95;40.45;;;16.60;99.90;;;;;;5045310;28;20052;-67
2023/09/10 03:14:50;;;;;;;42.03;37.63;;;16.70;99.90;;;;;;5032886;28;20077;-67
2023/09/10 03:17:17;;;;;;;37.72;33.83;;;16.60;99.90;;;;;;5033941;28;20126;-67
2023/09/10 03:19:44;;;;;;;43.25;38.95;;;16.60;99.90;;;;;;5034003;28;20095;-67
2023/09/10 03:22:10;;;;;;;45.95;41.05;;;16.60;99.90;;;;;;5022810;28;20059;-67
2023/09/10 03:24:37;;;;;;;45.30;40.53;;;16.60;99.90;;;;;;5048369;28;20087;-67
2023/09/10 03:27:03;;;;;;;45.97;41.28;;;16.60;99.90;;;;;;5050873;28;20045;-67
2023/09/10 03:29:30;;;;;;;46.22;41.45;;;16.60;99.90;;;;;;5054798;28;20045;-67
2023/09/10 03:31:56;;;;;;;41.45;37.25;;;16.60;99.90;;;;;;5054211;28;20033;-67
2023/09/10 03:34:22;;;;;;;40.90;36.65;;;16.60;99.90;;;;;;5053786;28;20398;-67
2023/09/10 03:36:47;;;;;;;42.88;38.58;;;16.60;99.90;;;;;;5053970;28;20040;-67
2023/09/10 03:39:13;;;;;;;40.42;36.15;;;16.50;99.90;;;;;;5054034;28;20069;-68
2023/09/10 03:41:39;;;;;;;48.72;43.78;;;16.50;99.90;;;;;;5038117;28;20041;-68
2023/09/10 03:44:05;;;;;;;42.20;37.58;;;16.50;99.90;;;;;;5054818;28;20033;-68
2023/09/10 03:46:30;;;;;;;44.15;39.67;;;16.60;99.90;;;;;;5053421;28;20391;-68
2023/09/10 03:48:56;;;;;;;48.53;43.38;;;16.50;99.90;;;;;;5053098;28;20077;-68
2023/09/10 03:51:22;;;;;;;42.17;37.90;;;16.50;99.90;;;;;;5053894;28;20056;-68
2023/09/10 03:53:47;;;;;;;41.33;36.83;;;16.50;99.90;;;;;;5053936;28;20094;-68
2023/09/10 03:56:13;;;;;;;39.15;34.92;;;16.50;99.90;;;;;;5053531;28;20042;-68
2023/09/10 03:58:39;;;;;;;47.78;42.78;;;16.50;99.90;;;;;;5020007;28;20047;-68
2023/09/10 04:01:05;;;;;;;39.30;35.22;;;16.40;99.90;;;;;;5036906;28;20402;-68
2023/09/10 04:03:31;;;;;;;39.97;35.88;;;16.40;99.90;;;;;;5053741;28;20044;-68
2023/09/10 04:05:56;;;;;;;40.75;36.75;;;16.40;99.90;;;;;;5036391;28;20041;-68
2023/09/10 04:08:22;;;;;;;48.67;43.58;;;16.40;99.90;;;;;;5036482;28;20049;-68
2023/09/10 04:10:47;;;;;;;47.53;42.60;;;16.40;99.90;;;;;;5035092;28;20044;-68
2023/09/10 04:13:13;;;;;;;41.55;37.35;;;16.30;99.90;;;;;;5019671;28;20037;-68
2023/09/10 04:15:39;;;;;;;35.13;31.67;;;16.30;99.90;;;;;;5053775;28;20045;-68
2023/09/10 04:18:05;;;;;;;39.33;35.30;;;16.30;99.90;;;;;;5035299;28;20045;-68
2023/09/10 04:20:32;;;;;;;34.35;30.70;;;16.30;99.90;;;;;;5036444;28;20478;-68
2023/09/10 04:22:57;;;;;;;36.45;32.63;;;16.30;99.90;;;;;;5036865;28;20048;-68
2023/09/10 04:25:23;;;;;;;33.05;29.75;;;16.30;99.90;;;;;;5052870;28;20044;-67
2023/09/10 04:27:49;;;;;;;36.72;33.03;;;16.30;99.90;;;;;;5036100;28;20493;-68
2023/09/10 04:30:15;;;;;;;40.67;36.28;;;16.30;99.90;;;;;;5053673;28;20086;-68
2023/09/10 04:32:41;;;;;;;43.47;38.03;;;16.30;99.90;;;;;;5035830;28;20504;-68
2023/09/10 04:35:07;;;;;;;39.95;35.78;;;16.30;99.90;;;;;;5053718;28;20095;-67
2023/09/10 04:37:34;;;;;;;42.45;38.13;;;16.20;99.90;;;;;;5035283;28;20068;-68
2023/09/10 04:40:04;;;;;;;44.75;40.15;;;16.20;99.90;;;;;;5053068;28;20381;-68
2023/09/10 04:42:29;;;;;;;41.83;37.42;;;16.30;99.90;;;;;;5053772;28;20393;-68
2023/09/10 04:44:55;;;;;;;36.95;33.08;;;16.30;99.90;;;;;;5035009;28;20049;-67
2023/09/10 04:47:20;;;;;;;37.92;34.00;;;16.30;99.90;;;;;;5035789;28;20049;-68
2023/09/10 04:49:46;;;;;;;46.30;41.45;;;16.20;99.90;;;;;;5053603;28;20041;-68
2023/09/10 04:52:12;;;;;;;38.25;34.33;;;16.20;99.90;;;;;;5052724;28;20567;-68
2023/09/10 04:54:37;;;;;;;40.08;35.85;;;16.20;99.90;;;;;;5052641;28;20053;-68
2023/09/10 04:57:03;;;;;;;39.83;35.67;;;16.20;99.90;;;;;;5035734;28;20045;-68
2023/09/10 04:59:29;;;;;;;41.95;37.65;;;16.20;99.90;;;;;;5033894;28;20656;-68
2023/09/10 05:01:55;;;;;;;38.70;34.60;;;16.20;99.90;;;;;;5054027;28;20028;-68
2023/09/10 05:04:21;;;;;;;37.88;33.88;;;16.20;99.90;;;;;;5053438;28;20040;-68
2023/09/10 05:06:46;;;;;;;35.15;31.60;;;16.10;99.90;;;;;;5052543;28;20033;-68
2023/09/10 05:09:12;;;;;;;37.97;33.63;;;16.20;99.90;;;;;;5034913;28;20126;-68
2023/09/10 05:11:38;;;;;;;42.38;38.15;;;16.20;99.90;;;;;;5052869;28;20048;-68
2023/09/10 05:14:04;;;;;;;40.97;36.75;;;16.10;99.90;;;;;;5034513;28;20033;-68
2023/09/10 05:16:29;;;;;;;38.83;34.63;;;16.20;99.90;;;;;;5053098;28;20045;-68
2023/09/10 05:18:55;;;;;;;45.53;40.80;;;16.20;99.90;;;;;;5053510;28;20036;-68
2023/09/10 05:21:21;;;;;;;40.75;36.42;;;16.20;99.90;;;;;;5052369;28;20043;-68
2023/09/10 05:23:46;;;;;;;37.47;33.47;;;16.20;99.90;;;;;;5052434;28;20040;-68
2023/09/10 05:26:12;;;;;;;48.42;41.42;;;16.20;99.90;;;;;;5052643;28;20063;-68
2023/09/10 05:28:38;;;;;;;45.95;41.08;;;16.20;99.90;;;;;;5051816;28;20041;-68
2023/09/10 05:31:04;;;;;;;41.45;37.15;;;16.20;99.90;;;;;;5053227;28;20394;-67
2023/09/10 05:33:30;;;;;;;42.67;38.22;;;16.20;99.90;;;;;;5052405;28;20060;-67
2023/09/10 05:35:57;;;;;;;40.78;36.55;;;16.20;99.90;;;;;;5034534;28;20409;-68
2023/09/10 05:38:23;;;;;;;40.13;36.00;;;16.20;99.90;;;;;;5052464;28;20517;-67
2023/09/10 05:40:49;;;;;;;36.83;32.78;;;16.20;99.90;;;;;;5051606;28;20488;-68
2023/09/10 05:43:15;;;;;;;34.33;30.77;;;16.30;99.90;;;;;;5052726;28;20068;-67
2023/09/10 05:45:40;;;;;;;32.88;29.45;;;16.30;99.90;;;;;;5052196;28;20398;-68
2023/09/10 05:48:06;;;;;;;39.72;35.75;;;16.30;99.90;;;;;;5033888;28;20235;-67
2023/09/10 05:50:32;;;;;;;41.88;37.65;;;16.30;99.90;;;;;;5034378;28;20056;-68
2023/09/10 05:52:59;;;;;;;36.25;32.40;;;16.30;99.90;;;;;;5052614;28;20048;-68
2023/09/10 05:55:26;;;;;;;33.40;30.08;;;16.40;99.90;;;;;;5050574;28;20409;-68
2023/09/10 05:57:52;;;;;;;40.58;36.38;;;16.40;99.90;;;;;;5018611;28;20033;-68
2023/09/10 06:00:21;;;;;;;39.05;35.08;;;16.40;99.90;;;;;;5033953;28;20045;-68
2023/09/10 06:02:51;;;;;;;37.35;33.67;;;16.40;99.90;;;;;;5033471;28;20051;-68
2023/09/10 06:05:17;;;;;;;43.25;38.88;;;16.50;99.90;;;;;;5034100;28;20048;-68
2023/09/10 06:07:43;;;;;;;47.03;42.08;;;16.40;99.90;;;;;;5034227;28;20041;-68
2023/09/10 06:10:09;;;;;;;47.45;42.75;;;16.50;99.90;;;;;;5032503;28;20049;-68
2023/09/10 06:12:38;;;;;;;47.58;41.63;;;16.50;99.90;;;;;;5034407;28;20052;-68
2023/09/10 06:15:05;;;;;;;45.28;40.50;;;16.50;99.90;;;;;;5051489;28;20040;-68
2023/09/10 06:17:32;;;;;;;44.83;40.20;;;16.60;99.90;;;;;;5032383;28;20041;-67
2023/09/10 06:19:57;;;;;;;48.75;43.72;;;16.60;99.90;;;;;;5050370;28;20639;-67
2023/09/10 06:22:23;;;;;;;35.92;32.28;;;16.70;99.90;;;;;;5050298;28;20033;-67
2023/09/10 06:24:50;;;;;;;47.53;42.78;;;16.80;99.90;;;;;;5047944;28;20091;-67
2023/09/10 06:27:16;;;;;;;48.17;43.03;;;16.80;99.90;;;;;;5048954;28;20098;-67
2023/09/10 06:29:43;;;;;;;48.72;42.80;;;16.90;99.90;;;;;;5031551;28;20057;-67
2023/09/10 06:32:09;;;;;;;54.33;48.42;;;17.00;99.90;;;;;;5029632;28;20045;-67
2023/09/10 06:34:34;;;;;;;39.33;35.20;;;17.10;99.90;;;;;;5031004;28;20473;-67
2023/09/10 06:37:00;;;;;;;41.17;36.35;;;17.20;99.90;;;;;;5049199;28;20049;-67
2023/09/10 06:39:26;;;;;;;54.72;46.78;;;17.30;99.90;;;;;;5031503;28;20373;-67
2023/09/10 06:41:54;;;;;;;52.42;46.72;;;17.30;99.90;;;;;;5031219;28;20095;-66
2023/09/10 06:44:20;;;;;;;50.58;45.17;;;17.40;99.90;;;;;;5048644;28;20120;-67
2023/09/10 06:46:46;;;;;;;56.10;50.15;;;17.50;99.90;;;;;;5031009;28;20119;-67
2023/09/10 06:49:11;;;;;;;58.63;52.22;;;17.60;99.90;;;;;;5049222;28;20049;-67
2023/09/10 06:51:37;;;;;;;45.22;39.72;;;17.70;99.90;;;;;;5048633;28;20045;-67
2023/09/10 06:54:03;;;;;;;56.88;50.70;;;17.70;99.90;;;;;;5049052;28;20057;-67
2023/09/10 06:56:32;;;;;;;47.45;42.30;;;17.80;99.90;;;;;;5030736;28;20067;-67
2023/09/10 06:58:57;;;;;;;47.60;42.53;;;17.80;99.90;;;;;;5030922;28;20455;-67
2023/09/10 07:01:23;;;;;;;48.05;42.65;;;17.90;99.90;;;;;;5049764;28;20072;-67
2023/09/10 07:03:52;;;;;;;46.10;41.13;;;18.10;99.90;;;;;;5035497;28;20049;-67
2023/09/10 07:06:18;;;;;;;48.72;43.75;;;18.10;99.90;;;;;;5052703;28;20088;-67
2023/09/10 07:08:44;;;;;;;48.63;43.58;;;18.20;99.90;;;;;;5033180;28;20096;-66
2023/09/10 07:11:09;;;;;;;55.15;49.67;;;18.30;99.90;;;;;;5034755;28;20722;-67
2023/09/10 07:13:38;;;;;;;58.22;52.22;;;18.30;99.90;;;;;;5052167;28;20460;-67
2023/09/10 07:16:05;;;;;;;45.40;40.50;;;18.40;99.90;;;;;;5035195;28;20144;-67
2023/09/10 07:18:33;;;;;;;45.80;41.25;;;18.50;99.90;;;;;;5035268;28;20044;-67
2023/09/10 07:21:00;;;;;;;51.03;45.67;;;18.60;99.90;;;;;;5034422;28;20036;-66
2023/09/10 07:23:27;;;;;;;49.97;44.90;;;18.70;99.90;;;;;;5034463;28;20037;-68
2023/09/10 07:25:53;;;;;;;50.33;44.85;;;18.80;99.90;;;;;;5052894;28;20048;-67
2023/09/10 07:28:18;;;;;;;46.63;41.60;;;18.90;99.90;;;;;;5034278;28;20044;-67
2023/09/10 07:30:44;;;;;;;48.88;43.80;;;19.00;99.90;;;;;;5013577;28;20045;-67
2023/09/10 07:33:10;;;;;;;44.95;40.28;;;19.00;99.90;;;;;;5022176;28;20057;-67
2023/09/10 07:35:35;;;;;;;46.67;41.63;;;19.20;99.90;;;;;;5051412;28;20390;-67
2023/09/10 07:38:01;;;;;;;46.03;40.28;;;19.30;99.90;;;;;;5033419;28;20079;-67
2023/09/10 07:40:27;;;;;;;50.97;45.75;;;19.40;99.90;;;;;;5032873;28;20041;-67
2023/09/10 07:42:52;;;;;;;50.45;45.30;;;19.40;99.90;;;;;;5021418;28;20091;-67
2023/09/10 07:45:18;;;;;;;47.92;42.95;;;19.50;99.90;;;;;;5048079;28;20045;-67
2023/09/10 07:47:43;;;;;;;41.53;37.13;;;19.70;99.90;;;;;;5031528;28;20056;-67
2023/09/10 07:50:09;;;;;;;41.22;36.83;;;19.70;99.90;;;;;;5032473;28;20044;-67
2023/09/10 07:52:35;;;;;;;48.80;43.50;;;19.90;99.90;;;;;;5033975;28;20056;-67
2023/09/10 07:55:00;;;;;;;41.05;36.60;;;19.90;99.90;;;;;;5029998;28;20719;-67
2023/09/10 07:57:26;;;;;;;42.55;38.25;;;20.10;99.90;;;;;;5031533;28;20119;-67
2023/09/10 07:59:52;;;;;;;43.00;38.45;;;20.20;99.90;;;;;;5030394;28;20041;-67
2023/09/10 08:02:18;;;;;;;44.10;39.75;;;20.30;99.90;;;;;;5017577;28;20120;-67
2023/09/10 08:04:43;;;;;;;39.55;35.35;;;20.30;99.90;;;;;;5010890;28;20045;-67
2023/09/10 08:07:10;;;;;;;39.88;35.78;;;20.50;99.90;;;;;;5031766;28;20042;-67
2023/09/10 08:09:37;;;;;;;41.47;37.08;;;20.50;99.90;;;;;;5024327;28;20037;-67
2023/09/10 08:12:04;;;;;;;37.92;34.08;;;20.60;99.90;;;;;;5028368;28;20038;-67
2023/09/10 08:14:29;;;;;;;38.75;34.65;;;20.70;99.90;;;;;;5010172;28;20457;-67
2023/09/10 08:16:55;;;;;;;31.13;27.80;;;20.80;99.90;;;;;;5029109;28;20041;-70
2023/09/10 08:19:21;;;;;;;34.38;31.02;;;20.90;99.90;;;;;;5032964;28;20129;-68
2023/09/10 08:21:47;;;;;;;30.80;27.63;;;21.00;99.90;;;;;;5032903;28;20045;-67
2023/09/10 08:24:12;;;;;;;32.47;28.92;;;21.00;99.90;;;;;;5032148;28;20042;-68
2023/09/10 08:26:38;;;;;;;38.28;34.20;;;21.10;99.90;;;;;;5033600;28;20379;-68
2023/09/10 08:29:04;;;;;;;31.05;27.85;;;21.10;99.90;;;;;;5032869;28;20045;-69
2023/09/10 08:31:30;;;;;;;33.53;30.23;;;21.20;99.90;;;;;;5031554;28;20088;-68
2023/09/10 08:33:55;;;;;;;31.85;28.30;;;21.30;99.90;;;;;;5034207;28;20045;-67
2023/09/10 08:36:21;;;;;;;34.53;30.90;;;21.40;99.90;;;;;;5031963;28;20033;-67
2023/09/10 08:38:49;;;;;;;31.42;28.15;;;21.40;99.90;;;;;;5033004;28;20038;-67
2023/09/10 08:41:34;;;;;;;31.52;28.20;;;21.50;99.90;;;;;;5032146;28;20040;-67
2023/09/10 08:44:02;;;;;;;32.70;29.30;;;21.60;99.90;;;;;;5031991;28;20080;-67
2023/09/10 08:46:31;;;;;;;28.85;25.95;;;21.70;99.90;;;;;;5033361;28;20398;-68
2023/09/10 08:48:58;;;;;;;27.02;24.13;;;21.70;99.90;;;;;;5033729;28;20053;-67
2023/09/10 08:51:24;;;;;;;31.05;24.42;;;21.70;99.90;;;;;;5032577;28;20041;-68
2023/09/10 08:53:55;;;;;;;28.60;25.70;;;21.80;99.90;;;;;;5035279;28;20042;-69
2023/09/10 08:56:21;;;;;;;24.60;22.15;;;22.00;99.90;;;;;;5035027;28;20116;-67
2023/09/10 08:58:48;;;;;;;26.50;23.00;;;22.00;99.90;;;;;;5051955;28;20123;-68
2023/09/10 09:01:14;;;;;;;23.27;20.88;;;22.20;99.90;;;;;;5035156;28;20041;-67
2023/09/10 09:03:40;;;;;;;26.85;21.60;;;22.30;99.90;;;;;;5018355;28;20049;-68
2023/09/10 09:06:06;;;;;;;28.17;25.15;;;22.30;99.90;;;;;;5034749;28;20370;-67
2023/09/10 09:08:34;;;;;;;23.65;21.02;;;22.40;99.90;;;;;;5053390;28;20052;-67
2023/09/10 09:11:08;;;;;;;26.30;23.65;;;22.50;99.90;;;;;;5035396;28;20053;-67
2023/09/10 09:13:42;;;;;;;20.63;18.30;;;22.50;99.90;;;;;;5034759;28;20398;-68
2023/09/10 09:16:09;;;;;;;;;;;22.60;99.90;;;;;;5035627;28;20056;-67
2023/09/10 09:18:36;;;;;;;22.77;20.40;;;22.70;99.90;;;;;;5034882;28;20381;-67
2023/09/10 09:21:21;;;;;;;25.52;23.15;;;22.70;99.90;;;;;;5035341;28;20048;-68
2023/09/10 09:23:57;;;;;;;22.85;19.23;;;22.90;99.90;;;;;;5035106;28;20056;-67
2023/09/10 09:26:25;;;;;;;23.70;21.30;;;22.90;99.90;;;;;;5051861;28;20041;-67
2023/09/10 09:28:52;;;;;;;22.40;20.13;;;23.00;99.90;;;;;;5034976;28;20045;-67
2023/09/10 09:31:20;;;;;;;23.75;21.35;;;23.00;99.90;;;;;;5052605;28;20040;-67
2023/09/10 09:33:47;;;;;;;24.90;20.10;;;23.10;99.90;;;;;;5034035;28;20053;-67
2023/09/10 09:36:12;;;;;;;20.20;18.15;;;23.20;99.90;;;;;;5034700;28;20045;-67
2023/09/10 09:38:43;;;;;;;25.77;22.45;;;23.20;99.90;;;;;;5018356;28;20048;-67
2023/09/10 09:41:09;;;;;;;21.63;19.30;;;23.30;99.90;;;;;;5051864;28;20432;-68
2023/09/10 09:43:35;;;;;;;25.40;20.67;;;23.30;99.90;;;;;;5034840;28;20102;-68
2023/09/10 09:46:02;;;;;;;21.40;19.25;;;23.40;99.90;;;;;;5018257;28;20106;-68
2023/09/10 09:48:29;;;;;;;22.30;20.10;;;23.50;99.90;;;;;;5051376;28;20080;-68
2023/09/10 09:50:58;;;;;;;20.83;18.70;;;23.60;99.90;;;;;;5034902;28;20048;-68
2023/09/10 09:53:31;;;;;;;20.77;18.55;;;23.60;99.90;;;;;;5017788;28;20068;-68
2023/09/10 09:55:59;;;;;;;20.50;18.40;;;23.70;99.90;;;;;;5051763;28;20440;-68
2023/09/10 09:58:25;;;;;;;21.00;18.02;;;23.70;99.90;;;;;;5033892;28;20041;-69
2023/09/10 10:00:51;;;;;;;22.85;20.42;;;23.80;99.90;;;;;;5050950;28;20477;-69
2023/09/10 10:03:20;;;;;;;18.30;16.40;;;23.80;99.90;;;;;;5051929;28;20509;-69
2023/09/10 10:05:53;;;;;;;24.50;20.77;;;23.90;99.90;;;;;;5034413;28;20049;-69
2023/09/10 10:08:24;;;;;;;19.73;16.27;;;23.90;99.90;;;;;;5032667;28;20088;-69
2023/09/10 10:10:50;;;;;;;16.55;14.82;;;24.00;99.90;;;;;;5034015;28;20094;-69
2023/09/10 10:13:18;;;;;;;16.75;13.60;;;24.10;99.90;;;;;;5033954;28;20124;-69
2023/09/10 10:15:46;;;;;;;20.17;15.95;;;24.10;99.90;;;;;;5033452;28;20497;-75
2023/09/10 10:18:18;;;;;;;18.15;13.05;;;24.20;99.90;;;;;;5034035;28;20036;-72
2023/09/10 10:20:49;;;;;;;16.58;14.48;;;24.20;99.90;;;;;;5017692;28;20066;-70
2023/09/10 10:23:19;;;;;;;15.27;13.70;;;24.30;99.90;;;;;;5032414;28;20107;-69
2023/09/10 10:25:46;;;;;;;16.88;13.55;;;24.40;99.90;;;;;;5051194;28;20394;-68
2023/09/10 10:28:13;;;;;;;17.17;13.70;;;24.30;99.90;;;;;;5033318;28;20079;-68
2023/09/10 10:30:51;;;;;;;13.27;11.88;;;24.40;99.90;;;;;;5033111;28;20112;-68
2023/09/10 10:33:20;;;;;;;15.63;12.32;;;24.50;99.90;;;;;;5032978;28;20045;-69
2023/09/10 10:35:58;;;;;;;19.95;13.18;;;24.60;99.90;;;;;;5027975;28;20045;-69
2023/09/10 10:38:27;;;;;;;17.73;13.15;;;24.60;99.90;;;;;;5029783;28;20393;-69
2023/09/10 10:40:54;;;;;;;14.48;12.77;;;24.60;99.90;;;;;;5050417;28;20045;-69
2023/09/10 10:43:29;;;;;;;17.23;14.10;;;24.70;99.90;;;;;;5054997;28;20052;-69
2023/09/10 10:45:57;;;;;;;14.85;13.35;;;24.70;99.90;;;;;;5038052;28;20158;-69
2023/09/10 10:48:28;;;;;;;13.82;12.43;;;24.70;99.90;;;;;;5037851;28;20045;-69
2023/09/10 10:50:57;;;;;;;13.18;11.65;;;24.80;99.90;;;;;;5052922;28;20490;-69
2023/09/10 10:53:26;;;;;;;14.18;11.57;;;24.90;99.90;;;;;;5028671;28;20179;-69
2023/09/10 10:55:58;;;;;;;16.30;12.32;;;25.00;99.90;;;;;;5034238;28;20042;-68
2023/09/10 10:58:24;;;;;;;15.13;10.88;;;25.00;99.90;;;;;;5032039;28;20052;-70
2023/09/10 11:00:55;;;;;;;15.18;12.20;;;25.00;99.90;;;;;;5013934;28;20168;-70
2023/09/10 11:03:21;;;;;;;14.73;11.23;;;25.10;99.90;;;;;;5026105;28;20056;-68
2023/09/10 11:05:53;;;;;;;13.05;11.23;;;25.10;99.90;;;;;;5033534;28;20045;-67
2023/09/10 11:08:26;;;;;;;15.38;12.32;;;25.20;99.90;;;;;;5034970;28;20045;-68
2023/09/10 11:10:52;;;;;;;17.17;11.63;;;25.20;99.90;;;;;;5026002;28;20045;-67
2023/09/10 11:13:18;;;;;;;14.10;11.93;;;25.30;99.90;;;;;;5027720;28;20103;-67
2023/09/10 11:16:05;;;;;;;14.40;10.63;;;25.30;99.90;;;;;;5034448;28;20047;-70
2023/09/10 11:18:37;;;;;;;12.52;9.82;;;25.40;99.90;;;;;;5033543;28;20049;-67
2023/09/10 11:21:05;;;;;;;15.07;10.20;;;25.40;99.90;;;;;;5034263;28;20487;-67
2023/09/10 11:23:32;;;;;;;13.23;11.40;;;25.50;99.90;;;;;;5034125;28;20041;-68
2023/09/10 11:26:13;;;;;;;14.85;10.93;;;25.50;99.90;;;;;;5033332;28;20053;-65
2023/09/10 11:28:47;;;;;;;14.50;10.63;;;25.60;99.90;;;;;;5034074;28;20048;-67
2023/09/10 11:31:46;;;;;;;14.60;11.40;;;25.60;99.90;;;;;;5033839;28;20131;-71
2023/09/10 11:34:15;;;;;;;13.82;10.40;;;25.70;99.90;;;;;;5033162;28;20098;-70
2023/09/10 11:36:46;;;;;;;14.10;11.98;;;25.80;99.90;;;;;;5033577;28;20095;-70
2023/09/10 11:39:14;;;;;;;14.18;10.82;;;25.80;99.90;;;;;;5033987;28;20034;-70
2023/09/10 11:41:45;;;;;;;11.57;8.52;;;25.80;99.90;;;;;;5033908;28;20514;-70
2023/09/10 11:44:11;;;;;;;13.60;10.93;;;25.80;99.90;;;;;;5034695;28;20505;-70
2023/09/10 11:46:40;;;;;;;11.00;9.90;;;25.80;99.90;;;;;;5016505;28;20134;-70
2023/09/10 11:49:06;;;;;;;17.20;10.88;;;25.90;99.90;;;;;;5033509;28;20045;-70
2023/09/10 11:51:32;;;;;;;12.63;9.15;;;26.00;99.90;;;;;;5034561;28;20037;-69
2023/09/10 11:53:59;;;;;;;15.75;9.43;;;26.00;99.90;;;;;;5035476;28;20555;-69
2023/09/10 11:56:26;;;;;;;11.68;9.70;;;26.10;99.90;;;;;;5054462;28;20057;-70
2023/09/10 11:58:53;;;;;;;11.80;8.40;;;26.10;99.90;;;;;;5054569;28;20399;-70
2023/09/10 12:01:20;;;;;;;12.65;8.55;;;26.10;99.90;;;;;;5053662;28;20081;-70
2023/09/10 12:03:46;;;;;;;10.25;7.68;;;26.20;99.90;;;;;;5054374;28;20083;-70
2023/09/10 12:06:12;;;;;;;11.65;8.48;;;26.20;99.90;;;;;;5036478;28;20453;-69
2023/09/10 12:08:38;;;;;;;14.40;8.13;;;26.30;99.90;;;;;;5035954;28;20037;-70
2023/09/10 12:11:08;;;;;;;12.55;7.93;;;26.30;99.90;;;;;;5054264;28;20041;-70
2023/09/10 12:13:35;;;;;;;14.40;9.73;;;26.40;99.90;;;;;;5036301;28;20102;-70
2023/09/10 12:16:05;;;;;;;16.08;10.35;;;26.40;99.90;;;;;;5035765;28;20045;-69
2023/09/10 12:18:31;;;;;;;13.95;9.80;;;26.40;99.90;;;;;;5053732;28;20120;-70
2023/09/10 12:21:00;;;;;;;18.05;10.10;;;26.40;99.90;;;;;;5036782;28;20400;-70
2023/09/10 12:23:27;;;;;;;14.55;9.70;;;26.40;99.90;;;;;;5035398;28;20041;-69
2023/09/10 12:25:57;;;;;;;15.77;10.80;;;26.40;99.90;;;;;;5054345;28;20540;-70
2023/09/10 12:28:24;;;;;;;13.38;10.05;;;26.50;99.90;;;;;;5036102;28;20052;-70
2023/09/10 12:30:50;;;;;;;13.75;10.10;;;26.50;99.90;;;;;;5052931;28;20163;-70